createdAt,value
2024-01-04T00:00:59.335Z,99276.00
2024-01-04T00:03:27.828Z,99278.31
2024-01-04T00:05:55.040Z,99285.38
2024-01-04T00:08:22.186Z,99284.97
2024-01-04T00:10:49.183Z,99300.59
2024-01-04T00:13:16.051Z,99303.69
2024-01-04T00:15:43.157Z,99302.16
2024-01-04T00:18:10.389Z,99315.41
2024-01-04T00:20:37.965Z,99320.84
2024-01-04T00:23:05.690Z,99322.81
2024-01-04T00:25:32.697Z,99322.03
2024-01-04T00:28:00.854Z,99334.91
2024-01-04T00:30:27.854Z,99330.22
2024-01-04T00:32:54.986Z,99343.06
2024-01-04T00:35:22.608Z,99337.97
2024-01-04T00:37:50.503Z,99337.47
2024-01-04T00:40:17.521Z,99338.25
2024-01-04T00:42:44.480Z,99341.38
2024-01-04T00:45:11.828Z,99347.59
2024-01-04T00:47:38.850Z,99357.75
2024-01-04T00:50:06.411Z,99359.63
2024-01-04T00:52:33.307Z,99370.56
2024-01-04T00:55:00.330Z,99381.44
2024-01-04T00:57:27.180Z,99382.25
2024-01-04T00:59:54.639Z,99377.94
2024-01-04T01:02:21.679Z,99390.03
2024-01-04T01:04:48.580Z,99398.19
2024-01-04T01:07:15.435Z,99403.25
2024-01-04T01:09:42.344Z,99409.06
2024-01-04T01:12:09.429Z,99405.19
2024-01-04T01:14:36.329Z,99409.84
2024-01-04T01:17:03.403Z,99420.38
2024-01-04T01:19:30.486Z,99418.78
2024-01-04T01:21:57.579Z,99427.00
2024-01-04T01:24:24.465Z,99437.59
2024-01-04T01:26:51.479Z,99450.03
2024-01-04T01:29:18.398Z,99456.69
2024-01-04T01:31:45.395Z,99457.03
2024-01-04T01:34:13.047Z,99458.56
2024-01-04T01:36:43.038Z,99465.63
2024-01-04T01:39:10.373Z,99462.09
2024-01-04T01:41:37.527Z,99474.56
2024-01-04T01:44:04.703Z,99489.38
2024-01-04T01:46:31.705Z,99490.47
2024-01-04T01:48:59.114Z,99495.50
2024-01-04T01:51:27.524Z,99509.47
2024-01-04T01:53:55.715Z,99510.53
2024-01-04T01:56:22.720Z,99515.13
2024-01-04T01:58:50.796Z,99511.09
2024-01-04T02:01:18.265Z,99510.28
2024-01-04T02:03:45.399Z,99523.97
2024-01-04T02:06:12.567Z,99525.25
2024-01-04T02:08:39.891Z,99538.69
2024-01-04T02:11:07.155Z,99543.19
2024-01-04T02:13:34.025Z,99549.22
2024-01-04T02:16:00.993Z,99554.44
2024-01-04T02:18:28.410Z,99553.59
2024-01-04T02:20:55.493Z,99564.50
2024-01-04T02:23:22.493Z,99571.72
2024-01-04T02:25:49.328Z,99583.16
2024-01-04T02:28:16.336Z,99580.09
2024-01-04T02:30:43.315Z,99590.66
2024-01-04T02:33:10.777Z,99589.44
2024-01-04T02:35:37.900Z,99592.50
2024-01-04T02:38:05.560Z,99588.91
2024-01-04T02:40:32.640Z,99593.47
2024-01-04T02:42:59.622Z,99601.34
2024-01-04T02:45:26.650Z,99607.94
2024-01-04T02:47:53.708Z,99611.09
2024-01-04T02:50:20.656Z,99608.84
2024-01-04T02:52:47.801Z,99614.03
2024-01-04T02:55:14.872Z,99622.66
2024-01-04T02:57:41.815Z,99623.81
2024-01-04T03:00:09.258Z,99624.25
2024-01-04T03:02:36.509Z,99631.31
2024-01-04T03:05:03.498Z,99635.25
2024-01-04T03:07:30.396Z,99637.53
2024-01-04T03:09:57.697Z,99644.69
2024-01-04T03:12:24.579Z,99649.00
2024-01-04T03:14:51.677Z,99653.84
2024-01-04T03:17:18.704Z,99648.91
2024-01-04T03:19:45.689Z,99651.69
2024-01-04T03:22:12.650Z,99657.84
2024-01-04T03:24:39.728Z,99665.34
2024-01-04T03:27:07.364Z,99664.84
2024-01-04T03:29:34.467Z,99671.09
2024-01-04T03:32:01.316Z,99676.91
2024-01-04T03:34:30.198Z,99675.78
2024-01-04T03:36:57.243Z,99678.06
2024-01-04T03:39:24.160Z,99687.59
2024-01-04T03:41:51.231Z,99689.44
2024-01-04T03:44:18.217Z,99698.47
2024-01-04T03:46:45.052Z,99701.38
2024-01-04T03:49:12.823Z,99700.56
2024-01-04T03:51:40.001Z,99703.94
2024-01-04T03:54:07.451Z,99711.97
2024-01-04T03:56:34.340Z,99717.16
2024-01-04T03:59:01.237Z,99717.28
2024-01-04T04:01:28.223Z,99724.75
2024-01-04T04:03:55.307Z,99727.97
2024-01-04T04:06:22.512Z,99726.25
2024-01-04T04:08:49.582Z,99726.69
2024-01-04T04:11:18.184Z,99734.81
2024-01-04T04:13:45.353Z,99735.28
2024-01-04T04:16:12.341Z,99736.56
2024-01-04T04:18:39.442Z,99744.31
2024-01-04T04:21:06.770Z,99746.06
2024-01-04T04:23:33.796Z,99758.69
2024-01-04T04:26:05.666Z,99744.81
2024-01-04T04:28:32.857Z,99746.28
2024-01-04T04:30:59.736Z,99754.47
2024-01-04T04:33:26.755Z,99762.88
2024-01-04T04:35:59.358Z,99774.09
2024-01-04T04:38:29.085Z,99768.06
2024-01-04T04:40:56.202Z,99774.00
2024-01-04T04:43:23.118Z,99795.69
2024-01-04T04:45:50.019Z,99800.56
2024-01-04T04:48:17.184Z,99803.06
2024-01-04T04:50:44.203Z,99806.66
2024-01-04T04:53:11.096Z,99815.78
2024-01-04T04:55:38.059Z,99812.72
2024-01-04T04:58:05.082Z,99819.31
2024-01-04T05:00:32.508Z,99822.03
2024-01-04T05:02:59.530Z,99831.72
2024-01-04T05:05:26.442Z,99829.31
2024-01-04T05:07:53.503Z,99837.19
2024-01-04T05:10:20.506Z,99823.75
2024-01-04T05:12:47.338Z,99838.56
2024-01-04T05:15:14.390Z,99840.94
2024-01-04T05:17:41.431Z,99839.09
2024-01-04T05:20:08.917Z,99848.44
2024-01-04T05:22:35.939Z,99857.78
2024-01-04T05:25:02.953Z,99859.34
2024-01-04T05:27:29.986Z,99867.22
2024-01-04T05:29:57.148Z,99870.16
2024-01-04T05:32:24.164Z,99868.47
2024-01-04T05:34:51.128Z,99884.63
2024-01-04T05:37:17.937Z,99877.78
2024-01-04T05:39:44.921Z,99888.38
2024-01-04T05:42:12.012Z,99891.00
2024-01-04T05:44:38.909Z,99892.03
2024-01-04T05:47:06.871Z,99893.84
2024-01-04T05:49:34.089Z,99907.50
2024-01-04T05:52:01.483Z,99907.03
2024-01-04T05:54:28.481Z,99917.03
2024-01-04T05:56:55.475Z,99911.47
2024-01-04T05:59:25.926Z,99920.78
2024-01-04T06:01:53.277Z,99919.88
2024-01-04T06:04:20.178Z,99928.38
2024-01-04T06:06:48.430Z,99938.41
2024-01-04T06:09:15.601Z,99941.44
2024-01-04T06:11:42.473Z,99948.84
2024-01-04T06:14:09.407Z,99952.38
2024-01-04T06:16:36.779Z,99954.88
2024-01-04T06:19:03.831Z,99957.03
2024-01-04T06:21:30.776Z,99959.28
2024-01-04T06:23:58.528Z,99969.94
2024-01-04T06:26:25.839Z,99975.41
2024-01-04T06:28:52.778Z,99977.47
2024-01-04T06:31:19.621Z,99987.91
2024-01-04T06:33:46.713Z,99996.31
2024-01-04T06:36:13.794Z,100000.41
2024-01-04T06:38:40.827Z,99997.66
2024-01-04T06:41:09.072Z,99994.38
2024-01-04T06:43:36.076Z,99994.38
2024-01-04T06:46:03.612Z,100003.13
2024-01-04T06:48:30.623Z,100013.78
2024-01-04T06:50:57.560Z,100018.94
2024-01-04T06:53:24.614Z,100018.84
2024-01-04T06:55:51.430Z,100019.44
2024-01-04T06:58:18.313Z,100015.69
2024-01-04T07:00:45.368Z,100019.22
2024-01-04T07:03:12.638Z,100027.06
2024-01-04T07:05:39.867Z,100030.59
2024-01-04T07:08:07.329Z,100030.25
2024-01-04T07:10:35.579Z,100033.78
2024-01-04T07:13:02.557Z,100034.91
2024-01-04T07:15:29.465Z,100044.06
2024-01-04T07:17:56.855Z,100050.09
2024-01-04T07:20:26.069Z,100047.09
2024-01-04T07:22:54.479Z,100054.00
2024-01-04T07:25:23.712Z,100059.19
2024-01-04T07:27:51.214Z,100063.72
2024-01-04T07:30:18.405Z,100073.03
2024-01-04T07:32:45.666Z,100078.78
2024-01-04T07:35:17.329Z,100081.41
2024-01-04T07:37:45.611Z,100084.31
2024-01-04T07:40:13.237Z,100092.63
2024-01-04T07:42:40.687Z,100084.91
2024-01-04T07:45:08.895Z,100093.28
2024-01-04T07:47:39.109Z,100100.41
2024-01-04T07:50:07.271Z,100102.31
2024-01-04T07:52:34.413Z,100105.97
2024-01-04T07:55:04.093Z,100106.91
2024-01-04T07:57:33.187Z,100107.50
2024-01-04T08:00:00.413Z,100113.75
2024-01-04T08:02:30.055Z,100128.78
2024-01-04T08:04:57.803Z,100131.53
2024-01-04T08:07:24.854Z,100129.66
2024-01-04T08:09:52.250Z,100130.78
2024-01-04T08:12:19.229Z,100137.03
2024-01-04T08:14:46.323Z,100145.72
2024-01-04T08:17:13.526Z,100144.31
2024-01-04T08:19:40.689Z,100141.13
2024-01-04T08:22:07.723Z,100152.19
2024-01-04T08:24:34.587Z,100155.25
2024-01-04T08:27:01.575Z,100160.19
2024-01-04T08:29:28.561Z,100160.16
2024-01-04T08:31:55.397Z,100160.44
2024-01-04T08:34:22.354Z,100167.41
2024-01-04T08:36:49.285Z,100168.16
2024-01-04T08:39:16.251Z,100166.84
2024-01-04T08:41:43.198Z,100178.84
2024-01-04T08:44:10.261Z,100184.69
2024-01-04T08:46:39.374Z,100189.63
2024-01-04T08:49:09.374Z,100193.75
2024-01-04T08:51:36.975Z,100199.13
2024-01-04T08:54:04.281Z,100198.28
2024-01-04T08:56:31.250Z,100196.97
2024-01-04T08:58:58.239Z,100210.72
2024-01-04T09:01:25.963Z,100202.34
2024-01-04T09:03:53.987Z,100193.00
2024-01-04T09:06:20.912Z,100203.75
2024-01-04T09:08:47.865Z,100212.03
2024-01-04T09:11:14.788Z,100211.25
2024-01-04T09:13:41.661Z,100213.31
2024-01-04T09:16:08.513Z,100218.47
2024-01-04T09:18:37.213Z,100226.72
2024-01-04T09:21:04.702Z,100228.34
2024-01-04T09:23:31.750Z,100231.19
2024-01-04T09:25:58.716Z,100236.00
2024-01-04T09:28:26.640Z,100238.81
2024-01-04T09:30:53.673Z,100234.69
2024-01-04T09:33:24.830Z,100240.97
2024-01-04T09:35:52.019Z,100238.00
2024-01-04T09:38:20.385Z,100247.44
2024-01-04T09:40:49.763Z,100259.22
2024-01-04T09:43:17.552Z,100263.69
2024-01-04T09:45:45.077Z,100260.63
2024-01-04T09:48:21.377Z,100257.50
2024-01-04T09:50:55.494Z,100262.72
2024-01-04T09:53:22.848Z,100265.59
2024-01-04T09:55:50.742Z,100260.00
2024-01-04T09:58:17.770Z,100263.84
2024-01-04T10:00:44.701Z,100269.63
2024-01-04T10:03:13.912Z,100275.22
2024-01-04T10:05:43.698Z,100292.25
2024-01-04T10:08:27.669Z,100290.94
2024-01-04T10:10:57.689Z,100297.94
2024-01-04T10:13:24.608Z,100298.09
2024-01-04T10:15:52.249Z,100291.47
2024-01-04T10:18:20.566Z,100305.13
2024-01-04T10:21:02.212Z,100300.94
2024-01-04T10:23:29.138Z,100303.44
2024-01-04T10:26:14.439Z,100301.69
2024-01-04T10:28:41.624Z,100304.81
2024-01-04T10:31:12.605Z,100310.31
2024-01-04T10:33:41.924Z,100316.22
2024-01-04T10:36:13.290Z,100319.44
2024-01-04T10:38:41.935Z,100323.97
2024-01-04T10:41:08.966Z,100324.91
2024-01-04T10:43:37.398Z,100335.81
2024-01-04T10:46:10.095Z,100338.44
2024-01-04T10:48:42.971Z,100338.44
2024-01-04T10:51:11.568Z,100333.38
2024-01-04T10:53:39.719Z,100338.97
2024-01-04T10:56:09.608Z,100344.91
2024-01-04T10:58:37.769Z,100338.06
2024-01-04T11:01:05.880Z,100348.66
2024-01-04T11:03:33.582Z,100347.84
2024-01-04T11:06:02.050Z,100353.97
2024-01-04T11:08:30.360Z,100341.66
2024-01-04T11:10:59.944Z,100346.13
2024-01-04T11:13:27.182Z,100351.13
2024-01-04T11:15:58.276Z,100353.00
2024-01-04T11:18:52.500Z,100358.66
2024-01-04T11:21:27.993Z,100351.88
2024-01-04T11:24:09.675Z,100354.03
2024-01-04T11:27:00.448Z,100344.78
2024-01-04T11:29:29.080Z,100350.56
2024-01-04T11:32:00.290Z,100349.56
2024-01-04T11:34:28.163Z,100350.22
2024-01-04T11:37:18.256Z,100345.88
2024-01-04T11:39:54.332Z,100350.13
2024-01-04T11:42:21.559Z,100352.69
2024-01-04T11:44:51.601Z,100345.63
2024-01-04T11:47:28.088Z,100353.72
2024-01-04T11:50:08.870Z,100359.88
2024-01-04T11:52:40.478Z,100358.28
2024-01-04T11:55:08.646Z,100366.50
2024-01-04T11:57:35.905Z,100362.16
2024-01-04T12:00:32.464Z,100375.06
2024-01-04T12:03:01.990Z,100362.59
2024-01-04T12:05:29.794Z,100351.31
2024-01-04T12:07:57.024Z,100352.66
2024-01-04T12:10:23.869Z,100346.50
2024-01-04T12:12:50.795Z,100349.13
2024-01-04T12:15:22.113Z,100350.97
2024-01-04T12:17:49.347Z,100349.41
2024-01-04T12:20:16.299Z,100344.38
2024-01-04T12:22:43.397Z,100352.81
2024-01-04T12:25:10.908Z,100354.41
2024-01-04T12:27:38.439Z,100342.66
2024-01-04T12:30:07.346Z,100344.72
2024-01-04T12:32:34.790Z,100336.72
2024-01-04T12:35:03.731Z,100350.28
2024-01-04T12:37:30.906Z,100349.13
2024-01-04T12:40:11.635Z,100349.44
2024-01-04T12:42:39.512Z,100353.66
2024-01-04T12:45:10.799Z,100347.28
2024-01-04T12:47:38.918Z,100359.47
2024-01-04T12:50:10.228Z,100359.69
2024-01-04T12:52:42.000Z,100357.44
2024-01-04T12:55:08.951Z,100353.13
2024-01-04T12:57:37.677Z,100346.19
2024-01-04T13:00:05.624Z,100344.81
2024-01-04T13:02:32.708Z,100344.03
2024-01-04T13:04:59.565Z,100351.44
2024-01-04T13:07:26.739Z,100347.09
2024-01-04T13:09:53.668Z,100348.03
2024-01-04T13:12:21.142Z,100346.09
2024-01-04T13:14:48.687Z,100352.13
2024-01-04T13:17:15.745Z,100345.28
2024-01-04T13:19:42.684Z,100339.47
2024-01-04T13:22:09.788Z,100341.06
2024-01-04T13:24:37.031Z,100342.41
2024-01-04T13:27:04.502Z,100352.56
2024-01-04T13:29:31.469Z,100355.66
2024-01-04T13:31:58.334Z,100354.72
2024-01-04T13:34:25.396Z,100351.63
2024-01-04T13:36:52.568Z,100357.19
2024-01-04T13:39:19.563Z,100362.81
2024-01-04T13:41:46.539Z,100365.06
2024-01-04T13:44:14.510Z,100367.22
2024-01-04T13:46:41.993Z,100366.53
2024-01-04T13:49:09.053Z,100378.16
2024-01-04T13:51:36.650Z,100386.94
2024-01-04T13:54:04.398Z,100387.78
2024-01-04T13:56:35.725Z,100396.75
2024-01-04T13:59:02.671Z,100393.81
2024-01-04T14:01:30.076Z,100390.16
2024-01-04T14:03:57.139Z,100391.03
2024-01-04T14:06:24.288Z,100394.66
2024-01-04T14:08:54.177Z,100404.00
2024-01-04T14:11:22.411Z,100399.06
2024-01-04T14:13:49.665Z,100405.34
2024-01-04T14:16:16.521Z,100410.53
2024-01-04T14:18:43.519Z,100405.56
2024-01-04T14:21:10.440Z,100416.06
2024-01-04T14:23:37.382Z,100415.81
2024-01-04T14:26:04.534Z,100415.69
2024-01-04T14:28:31.552Z,100419.22
2024-01-04T14:30:58.494Z,100416.50
2024-01-04T14:33:32.534Z,100416.28
2024-01-04T14:36:04.559Z,100421.47
2024-01-04T14:38:31.630Z,100419.28
2024-01-04T14:40:58.587Z,100417.03
2024-01-04T14:43:25.488Z,100413.63
2024-01-04T14:45:52.414Z,100414.44
2024-01-04T14:48:19.440Z,100406.56
2024-01-04T14:50:46.666Z,100418.97
2024-01-04T14:53:14.916Z,100405.38
2024-01-04T14:55:41.799Z,100405.38
2024-01-04T14:58:09.112Z,100402.28
2024-01-04T15:00:36.426Z,100397.84
2024-01-04T15:03:04.441Z,100412.09
2024-01-04T15:05:34.831Z,100399.09
2024-01-04T15:08:02.049Z,100409.09
2024-01-04T15:10:28.915Z,100426.16
2024-01-04T15:12:57.376Z,100418.31
2024-01-04T15:15:30.170Z,100409.53
2024-01-04T15:18:04.021Z,100416.25
2024-01-04T15:20:31.054Z,100407.91
2024-01-04T15:22:57.983Z,100411.78
2024-01-04T15:25:26.124Z,100411.31
2024-01-04T15:27:54.732Z,100426.19
2024-01-04T15:30:21.749Z,100420.41
2024-01-04T15:32:50.938Z,100413.00
2024-01-04T15:35:17.960Z,100423.31
2024-01-04T15:37:45.635Z,100425.94
2024-01-04T15:40:13.330Z,100432.16
2024-01-04T15:42:40.267Z,100434.78
2024-01-04T15:45:07.697Z,100420.19
2024-01-04T15:47:34.794Z,100422.19
2024-01-04T15:50:03.203Z,100426.84
2024-01-04T15:52:30.065Z,100424.31
2024-01-04T15:54:57.051Z,100423.34
2024-01-04T15:57:24.019Z,100427.56
2024-01-04T15:59:51.003Z,100423.88
2024-01-04T16:02:18.058Z,100426.28
2024-01-04T16:04:45.193Z,100440.88
2024-01-04T16:07:12.260Z,100431.91
2024-01-04T16:09:39.245Z,100428.34
2024-01-04T16:12:07.819Z,100435.09
2024-01-04T16:14:35.172Z,100430.56
2024-01-04T16:17:04.376Z,100437.47
2024-01-04T16:19:31.466Z,100445.88
2024-01-04T16:21:58.493Z,100442.47
2024-01-04T16:24:25.609Z,100449.41
2024-01-04T16:26:53.930Z,100450.22
2024-01-04T16:29:22.312Z,100449.88
2024-01-04T16:31:49.290Z,100450.66
2024-01-04T16:34:17.216Z,100444.25
2024-01-04T16:36:44.349Z,100441.53
2024-01-04T16:39:12.112Z,100449.59
2024-01-04T16:41:38.978Z,100447.53
2024-01-04T16:44:05.862Z,100445.47
2024-01-04T16:46:33.089Z,100442.88
2024-01-04T16:49:00.254Z,100442.88
2024-01-04T16:51:27.270Z,100440.31
2024-01-04T16:53:54.465Z,100442.09
2024-01-04T16:56:24.529Z,100443.22
2024-01-04T16:58:54.930Z,100443.88
2024-01-04T17:01:22.054Z,100446.47
2024-01-04T17:03:48.997Z,100456.88
2024-01-04T17:06:16.581Z,100452.22
2024-01-04T17:08:43.610Z,100454.63
2024-01-04T17:11:11.144Z,100441.31
2024-01-04T17:13:38.580Z,100451.09
2024-01-04T17:16:05.823Z,100445.63
2024-01-04T17:18:32.923Z,100445.97
2024-01-04T17:20:59.865Z,100451.44
2024-01-04T17:23:28.563Z,100450.78
2024-01-04T17:25:55.442Z,100448.22
2024-01-04T17:28:22.768Z,100441.97
2024-01-04T17:30:53.376Z,100447.53
2024-01-04T17:33:20.564Z,100447.53
2024-01-04T17:35:56.140Z,100458.16
2024-01-04T17:38:33.206Z,100458.16
2024-01-04T17:41:00.500Z,100459.75
2024-01-04T17:43:27.385Z,100455.56
2024-01-04T17:45:54.459Z,100456.22
2024-01-04T17:48:21.785Z,100449.97
2024-01-04T17:50:48.755Z,100454.63
2024-01-04T17:53:15.869Z,100458.97
2024-01-04T17:55:42.826Z,100457.81
2024-01-04T17:58:09.802Z,100453.34
2024-01-04T18:00:37.129Z,100450.47
2024-01-04T18:03:04.409Z,100458.66
2024-01-04T18:05:31.534Z,100456.22
2024-01-04T18:07:59.508Z,100463.28
2024-01-04T18:10:26.874Z,100461.53
2024-01-04T18:12:53.834Z,100467.31
2024-01-04T18:15:20.994Z,100464.94
2024-01-04T18:17:48.176Z,100464.13
2024-01-04T18:20:16.113Z,100454.81
2024-01-04T18:22:43.331Z,100459.00
2024-01-04T18:25:10.358Z,100456.59
2024-01-04T18:27:37.541Z,100460.59
2024-01-04T18:30:05.956Z,100459.00
2024-01-04T18:32:33.099Z,100464.31
2024-01-04T18:35:01.079Z,100458.06
2024-01-04T18:37:28.159Z,100460.78
2024-01-04T18:39:55.334Z,100449.72
2024-01-04T18:42:22.454Z,100454.06
2024-01-04T18:44:49.673Z,100444.06
2024-01-04T18:47:16.748Z,100442.97
2024-01-04T18:49:43.819Z,100446.84
2024-01-04T18:52:10.839Z,100448.13
2024-01-04T18:54:37.856Z,100447.72
2024-01-04T18:57:05.003Z,100456.72
2024-01-04T18:59:32.980Z,100457.97
2024-01-04T19:01:59.885Z,100446.41
2024-01-04T19:04:26.872Z,100444.47
2024-01-04T19:06:54.794Z,100438.38
2024-01-04T19:09:23.457Z,100437.09
2024-01-04T19:11:50.401Z,100444.94
2024-01-04T19:14:17.622Z,100442.56
2024-01-04T19:16:45.975Z,100449.44
2024-01-04T19:19:13.242Z,100448.78
2024-01-04T19:21:40.587Z,100454.41
2024-01-04T19:24:07.590Z,100450.09
2024-01-04T19:26:34.607Z,100449.59
2024-01-04T19:29:01.454Z,100442.56
2024-01-04T19:31:28.364Z,100452.97
2024-01-04T19:33:56.596Z,100454.59
2024-01-04T19:36:23.845Z,100454.41
2024-01-04T19:38:50.909Z,100456.53
2024-01-04T19:41:20.090Z,100454.78
2024-01-04T19:43:47.032Z,100459.75
2024-01-04T19:46:14.358Z,100458.47
2024-01-04T19:48:41.576Z,100449.97
2024-01-04T19:51:08.979Z,100445.00
2024-01-04T19:53:35.963Z,100444.53
2024-01-04T19:56:03.555Z,100427.19
2024-01-04T19:58:32.359Z,100425.44
2024-01-04T20:00:59.741Z,100421.78
2024-01-04T20:03:27.042Z,100431.88
2024-01-04T20:05:54.166Z,100437.00
2024-01-04T20:08:21.047Z,100437.50
2024-01-04T20:10:48.048Z,100440.38
2024-01-04T20:13:14.936Z,100435.84
2024-01-04T20:15:41.793Z,100435.38
2024-01-04T20:18:08.894Z,100428.50
2024-01-04T20:20:35.976Z,100420.78
2024-01-04T20:23:02.950Z,100418.06
2024-01-04T20:25:31.316Z,100415.31
2024-01-04T20:27:58.284Z,100421.44
2024-01-04T20:30:25.433Z,100412.94
2024-01-04T20:32:52.610Z,100416.13
2024-01-04T20:35:19.790Z,100416.47
2024-01-04T20:37:46.741Z,100411.47
2024-01-04T20:40:16.195Z,100418.84
2024-01-04T20:42:46.054Z,100414.84
2024-01-04T20:45:16.113Z,100405.06
2024-01-04T20:47:43.115Z,100405.41
2024-01-04T20:50:10.099Z,100402.69
2024-01-04T20:52:37.214Z,100398.94
2024-01-04T20:55:05.196Z,100406.34
2024-01-04T20:57:33.547Z,100403.94
2024-01-04T21:00:01.355Z,100402.81
2024-01-04T21:02:28.407Z,100403.47
2024-01-04T21:04:55.340Z,100394.50
2024-01-04T21:07:22.609Z,100392.56
2024-01-04T21:09:49.492Z,100386.16
2024-01-04T21:12:16.465Z,100391.81
2024-01-04T21:14:46.329Z,100392.25
2024-01-04T21:17:14.433Z,100386.16
2024-01-04T21:19:41.520Z,100388.53
2024-01-04T21:22:08.694Z,100386.34
2024-01-04T21:24:36.817Z,100382.00
2024-01-04T21:27:04.600Z,100380.91
2024-01-04T21:29:32.468Z,100371.41
2024-01-04T21:31:59.515Z,100382.31
2024-01-04T21:34:26.574Z,100371.91
2024-01-04T21:36:53.492Z,100371.09
2024-01-04T21:39:22.166Z,100375.59
2024-01-04T21:41:49.754Z,100372.41
2024-01-04T21:44:16.951Z,100366.31
2024-01-04T21:46:44.697Z,100382.00
2024-01-04T21:49:11.933Z,100369.50
2024-01-04T21:51:38.923Z,100368.19
2024-01-04T21:54:05.903Z,100366.59
2024-01-04T21:56:33.210Z,100354.88
2024-01-04T21:59:01.729Z,100351.34
2024-01-04T22:01:30.873Z,100352.47
2024-01-04T22:03:58.238Z,100344.28
2024-01-04T22:06:25.548Z,100345.28
2024-01-04T22:08:53.012Z,100335.69
2024-01-04T22:11:20.079Z,100341.94
2024-01-04T22:13:48.122Z,100340.63
2024-01-04T22:16:15.746Z,100339.97
2024-01-04T22:18:42.766Z,100337.25
2024-01-04T22:21:10.008Z,100331.97
2024-01-04T22:23:38.246Z,100328.44
2024-01-04T22:26:05.085Z,100327.50
2024-01-04T22:28:32.546Z,100324.78
2024-01-04T22:30:59.655Z,100321.84
2024-01-04T22:33:26.869Z,100319.47
2024-01-04T22:35:54.009Z,100319.63
2024-01-04T22:38:20.983Z,100310.19
2024-01-04T22:40:47.811Z,100321.91
2024-01-04T22:43:14.789Z,100302.66
2024-01-04T22:45:42.014Z,100305.38
2024-01-04T22:48:12.123Z,100298.81
2024-01-04T22:50:39.026Z,100298.16
2024-01-04T22:53:05.950Z,100289.50
2024-01-04T22:55:33.090Z,100295.28
2024-01-04T22:57:59.996Z,100290.16
2024-01-04T23:00:27.566Z,100283.91
2024-01-04T23:02:56.282Z,100275.25
2024-01-04T23:05:23.330Z,100269.78
2024-01-04T23:07:50.257Z,100267.41
2024-01-04T23:10:17.393Z,100257.16
2024-01-04T23:12:45.587Z,100251.38
2024-01-04T23:15:13.750Z,100243.69
2024-01-04T23:17:41.084Z,100240.00
2024-01-04T23:20:10.129Z,100238.88
2024-01-04T23:22:37.367Z,100237.28
2024-01-04T23:25:05.084Z,100239.03
2024-01-04T23:27:35.084Z,100237.28
2024-01-04T23:30:04.438Z,100229.59
2024-01-04T23:32:31.484Z,100226.25
2024-01-04T23:34:58.574Z,100230.09
2024-01-04T23:37:25.537Z,100229.00
2024-01-04T23:39:52.476Z,100231.56
2024-01-04T23:42:19.482Z,100226.25
2024-01-04T23:44:46.471Z,100217.44
2024-01-04T23:47:14.043Z,100220.00
2024-01-04T23:49:41.139Z,100219.34
2024-01-04T23:52:08.071Z,100214.91
2024-01-04T23:54:35.073Z,100210.41
2024-01-04T23:57:02.602Z,100200.97
2024-01-04T23:59:29.438Z,100206.44
